CEG weather

Hawarden Airport
Hawarden, Wales, United Kingdom

Public forecast

Using degrees Celsius for public forecast. Weather courtesy of forecast.io.

Current aviation weather report (METAR) for Hawarden Airport

Retrieved 2019/12/11 20:50 UTC (1 hour ago):

EGNR 112050Z 23010KT 9999 SCT030 03/M00 Q1001

Aviation forecast (TAF) for Hawarden Airport

Forecast is more than 12 hours old.

Retrieved 2016/01/23 12:00 UTC (4 years ago):

TAF EGNR 231059Z 2312/2319 15009KT 9999 FEW020 BECMG 2316/2319 BKN014 TEMPO 2317/2319 6000 RA BKN008